sensor_id;sensor_type;location;lat;lon;timestamp;pressure;altitude;pressure_sealevel;temperature;humidity
30343;BME280;17145;49.902;8.680;'2022-08-19 01:59:08';99650;;;21;52
30343;BME280;17145;49.902;8.680;'2022-08-19 02:01:38';99650;;;22;52
30343;BME280;17145;49.902;8.680;'2022-08-19 02:04:09';99650;;;21;51
30343;BME280;17145;49.902;8.680;'2022-08-19 02:06:39';99650;;;21;52
30343;BME280;17145;49.902;8.680;'2022-08-19 02:09:10';99660;;;21;51
30343;BME280;17145;49.902;8.680;'2022-08-19 02:11:38';99660;;;21;52
30343;BME280;17145;49.902;8.680;'2022-08-19 02:14:08';99660;;;21;51
30343;BME280;17145;49.902;8.680;'2022-08-19 02:16:36';99650;;;21;51
30343;BME280;17145;49.902;8.680;'2022-08-19 02:19:05';99640;;;21;51
30343;BME280;17145;49.902;8.680;'2022-08-19 02:21:33';99640;;;21;51
30343;BME280;17145;49.902;8.680;'2022-08-19 02:24:00';99640;;;22;52
30343;BME280;17145;49.902;8.680;'2022-08-19 02:26:28';99630;;;21;51
30343;BME280;17145;49.902;8.680;'2022-08-19 02:28:56';99620;;;21;52
30343;BME280;17145;49.902;8.680;'2022-08-19 02:31:24';99620;;;22;52
30343;BME280;17145;49.902;8.680;'2022-08-19 02:33:51';99610;;;21;51
30343;BME280;17145;49.902;8.680;'2022-08-19 02:36:19';99620;;;21;52
30343;BME280;17145;49.902;8.680;'2022-08-19 02:38:46';99620;;;21;52
30343;BME280;17145;49.902;8.680;'2022-08-19 02:41:16';99620;;;21;52
30343;BME280;17145;49.902;8.680;'2022-08-19 02:43:58';99610;;;21;52
30343;BME280;17145;49.902;8.680;'2022-08-19 02:46:25';99610;;;21;52
30343;BME280;17145;49.902;8.680;'2022-08-19 02:48:54';99600;;;21;52
30343;BME280;17145;49.902;8.680;'2022-08-19 02:51:22';99600;;;21;52
30343;BME280;17145;49.902;8.680;'2022-08-19 02:53:49';99590;;;21;52
30343;BME280;17145;49.902;8.680;'2022-08-19 02:56:17';99590;;;21;51
30343;BME280;17145;49.902;8.680;'2022-08-19 02:58:45';99580;;;21;51
30343;BME280;17145;49.902;8.680;'2022-08-19 03:01:13';99590;;;21;51
30343;BME280;17145;49.902;8.680;'2022-08-19 03:03:40';99600;;;21;51
30343;BME280;17145;49.902;8.680;'2022-08-19 03:06:08';99600;;;21;51
30343;BME280;17145;49.902;8.680;'2022-08-19 03:08:35';99610;;;21;51
30343;BME280;17145;49.902;8.680;'2022-08-19 03:11:03';99600;;;21;51
30343;BME280;17145;49.902;8.680;'2022-08-19 03:13:34';99610;;;21;51
30343;BME280;17145;49.902;8.680;'2022-08-19 03:16:05';99600;;;21;51
30343;BME280;17145;49.902;8.680;'2022-08-19 03:18:37';99600;;;21;50
30343;BME280;17145;49.902;8.680;'2022-08-19 03:21:09';99600;;;21;50
30343;BME280;17145;49.902;8.680;'2022-08-19 03:23:37';99590;;;21;50
30343;BME280;17145;49.902;8.680;'2022-08-19 03:26:05';99590;;;21;51
30343;BME280;17145;49.902;8.680;'2022-08-19 03:28:32';99590;;;21;50
30343;BME280;17145;49.902;8.680;'2022-08-19 03:31:00';99590;;;21;50
30343;BME280;17145;49.902;8.680;'2022-08-19 03:33:27';99590;;;21;50
30343;BME280;17145;49.902;8.680;'2022-08-19 03:36:04';99590;;;21;50
30343;BME280;17145;49.902;8.680;'2022-08-19 03:38:36';99590;;;21;50
30343;BME280;17145;49.902;8.680;'2022-08-19 03:41:03';99590;;;22;50
30343;BME280;17145;49.902;8.680;'2022-08-19 03:43:31';99600;;;21;50
30343;BME280;17145;49.902;8.680;'2022-08-19 03:45:59';99600;;;22;51
30343;BME280;17145;49.902;8.680;'2022-08-19 03:48:32';99600;;;21;50
30343;BME280;17145;49.902;8.680;'2022-08-19 03:50:59';99600;;;21;50
30343;BME280;17145;49.902;8.680;'2022-08-19 03:53:28';99610;;;21;50
30343;BME280;17145;49.902;8.680;'2022-08-19 03:55:55';99610;;;21;50
30343;BME280;17145;49.902;8.680;'2022-08-19 03:58:28';99610;;;21;50
30343;BME280;17145;49.902;8.680;'2022-08-19 04:00:57';99610;;;21;50
30343;BME280;17145;49.902;8.680;'2022-08-19 04:03:25';99610;;;22;50
30343;BME280;17145;49.902;8.680;'2022-08-19 04:05:56';99610;;;21;49
30343;BME280;17145;49.902;8.680;'2022-08-19 04:08:23';99610;;;21;49
30343;BME280;17145;49.902;8.680;'2022-08-19 04:10:51';99620;;;21;50
30343;BME280;17145;49.902;8.680;'2022-08-19 04:13:19';99620;;;21;50
30343;BME280;17145;49.902;8.680;'2022-08-19 04:15:47';99620;;;21;50
30343;BME280;17145;49.902;8.680;'2022-08-19 04:18:14';99620;;;21;50
30343;BME280;17145;49.902;8.680;'2022-08-19 04:20:43';99620;;;21;50
30343;BME280;17145;49.902;8.680;'2022-08-19 04:23:12';99610;;;21;50
30343;BME280;17145;49.902;8.680;'2022-08-19 04:25:40';99620;;;21;50
30343;BME280;17145;49.902;8.680;'2022-08-19 04:28:08';99620;;;21;51
30343;BME280;17145;49.902;8.680;'2022-08-19 04:30:36';99620;;;21;51
30343;BME280;17145;49.902;8.680;'2022-08-19 04:33:04';99630;;;21;51
30343;BME280;17145;49.902;8.680;'2022-08-19 04:35:31';99630;;;21;51
30343;BME280;17145;49.902;8.680;'2022-08-19 04:37:59';99620;;;21;51
30343;BME280;17145;49.902;8.680;'2022-08-19 04:40:27';99610;;;21;51
30343;BME280;17145;49.902;8.680;'2022-08-19 04:42:55';99610;;;21;51
30343;BME280;17145;49.902;8.680;'2022-08-19 04:45:22';99620;;;21;51
30343;BME280;17145;49.902;8.680;'2022-08-19 04:47:50';99620;;;21;51
30343;BME280;17145;49.902;8.680;'2022-08-19 04:50:18';99620;;;21;52
30343;BME280;17145;49.902;8.680;'2022-08-19 04:52:45';99620;;;21;52
30343;BME280;17145;49.902;8.680;'2022-08-19 04:55:13';99620;;;21;52
30343;BME280;17145;49.902;8.680;'2022-08-19 04:57:40';99620;;;21;52
30343;BME280;17145;49.902;8.680;'2022-08-19 05:00:09';99620;;;21;52
30343;BME280;17145;49.902;8.680;'2022-08-19 05:02:37';99620;;;21;52
30343;BME280;17145;49.902;8.680;'2022-08-19 05:05:09';99620;;;21;52
30343;BME280;17145;49.902;8.680;'2022-08-19 05:07:37';99620;;;21;52
30343;BME280;17145;49.902;8.680;'2022-08-19 05:10:06';99620;;;21;52
30343;BME280;17145;49.902;8.680;'2022-08-19 05:12:36';99620;;;21;52
30343;BME280;17145;49.902;8.680;'2022-08-19 05:15:06';99620;;;21;52
30343;BME280;17145;49.902;8.680;'2022-08-19 05:17:34';99630;;;21;53
30343;BME280;17145;49.902;8.680;'2022-08-19 05:20:03';99630;;;21;53
30343;BME280;17145;49.902;8.680;'2022-08-19 05:22:30';99630;;;21;53
30343;BME280;17145;49.902;8.680;'2022-08-19 05:24:58';99630;;;21;53
30343;BME280;17145;49.902;8.680;'2022-08-19 05:27:26';99630;;;21;53
30343;BME280;17145;49.902;8.680;'2022-08-19 05:29:53';99630;;;21;53
30343;BME280;17145;49.902;8.680;'2022-08-19 05:32:21';99630;;;21;53
30343;BME280;17145;49.902;8.680;'2022-08-19 05:34:48';99630;;;21;53
30343;BME280;17145;49.902;8.680;'2022-08-19 05:37:16';99630;;;21;53
30343;BME280;17145;49.902;8.680;'2022-08-19 05:39:43';99630;;;21;53
30343;BME280;17145;49.902;8.680;'2022-08-19 05:42:12';99630;;;21;53
30343;BME280;17145;49.902;8.680;'2022-08-19 05:44:39';99630;;;21;53
30343;BME280;17145;49.902;8.680;'2022-08-19 05:47:07';99630;;;21;54
30343;BME280;17145;49.902;8.680;'2022-08-19 05:49:35';99640;;;20;54
30343;BME280;17145;49.902;8.680;'2022-08-19 05:52:03';99640;;;21;54
30343;BME280;17145;49.902;8.680;'2022-08-19 05:54:31';99640;;;21;54
30343;BME280;17145;49.902;8.680;'2022-08-19 05:56:59';99640;;;21;54
30343;BME280;17145;49.902;8.680;'2022-08-19 05:59:29';99640;;;21;54
30343;BME280;17145;49.902;8.680;'2022-08-19 06:01:59';99640;;;21;54
30343;BME280;17145;49.902;8.680;'2022-08-19 06:04:27';99640;;;21;54
30343;BME280;17145;49.902;8.680;'2022-08-19 06:06:56';99640;;;21;54
30343;BME280;17145;49.902;8.680;'2022-08-19 06:09:24';99650;;;21;54
30343;BME280;17145;49.902;8.680;'2022-08-19 06:11:57';99650;;;21;53
30343;BME280;17145;49.902;8.680;'2022-08-19 06:14:27';99650;;;21;54
30343;BME280;17145;49.902;8.680;'2022-08-19 06:16:54';99650;;;21;53
30343;BME280;17145;49.902;8.680;'2022-08-19 06:19:22';99640;;;21;53
30343;BME280;17145;49.902;8.680;'2022-08-19 06:21:53';99640;;;21;54
30343;BME280;17145;49.902;8.680;'2022-08-19 06:24:22';99650;;;21;54
30343;BME280;17145;49.902;8.680;'2022-08-19 06:26:50';99640;;;21;53
30343;BME280;17145;49.902;8.680;'2022-08-19 06:29:20';99640;;;21;53
30343;BME280;17145;49.902;8.680;'2022-08-19 06:31:49';99640;;;21;53
30343;BME280;17145;49.902;8.680;'2022-08-19 06:34:19';99640;;;21;53
30343;BME280;17145;49.902;8.680;'2022-08-19 06:36:47';99640;;;21;52
30343;BME280;17145;49.902;8.680;'2022-08-19 06:39:19';99640;;;20;52
30343;BME280;17145;49.902;8.680;'2022-08-19 06:41:47';99640;;;20;53
30343;BME280;17145;49.902;8.680;'2022-08-19 06:44:15';99640;;;20;53
30343;BME280;17145;49.902;8.680;'2022-08-19 06:46:42';99640;;;20;53
30343;BME280;17145;49.902;8.680;'2022-08-19 06:49:10';99640;;;20;53
30343;BME280;17145;49.902;8.680;'2022-08-19 06:51:40';99650;;;20;53
30343;BME280;17145;49.902;8.680;'2022-08-19 06:54:08';99650;;;20;53
30343;BME280;17145;49.902;8.680;'2022-08-19 06:56:36';99650;;;20;53
30343;BME280;17145;49.902;8.680;'2022-08-19 06:59:03';99660;;;20;54
30343;BME280;17145;49.902;8.680;'2022-08-19 07:01:33';99660;;;20;54
30343;BME280;17145;49.902;8.680;'2022-08-19 07:04:01';99660;;;20;53
30343;BME280;17145;49.902;8.680;'2022-08-19 07:06:29';99660;;;21;53
30343;BME280;17145;49.902;8.680;'2022-08-19 07:08:56';99660;;;21;54
30343;BME280;17145;49.902;8.680;'2022-08-19 07:11:28';99670;;;21;54
30343;BME280;17145;49.902;8.680;'2022-08-19 07:13:57';99670;;;20;54
30343;BME280;17145;49.902;8.680;'2022-08-19 07:16:26';99670;;;21;54
30343;BME280;17145;49.902;8.680;'2022-08-19 07:18:54';99660;;;21;54
30343;BME280;17145;49.902;8.680;'2022-08-19 07:21:22';99660;;;21;54
30343;BME280;17145;49.902;8.680;'2022-08-19 07:23:49';99660;;;21;53
30343;BME280;17145;49.902;8.680;'2022-08-19 07:26:17';99660;;;21;53
30343;BME280;17145;49.902;8.680;'2022-08-19 07:28:44';99660;;;21;53
30343;BME280;17145;49.902;8.680;'2022-08-19 07:31:12';99670;;;21;53
30343;BME280;17145;49.902;8.680;'2022-08-19 07:33:39';99670;;;21;53
30343;BME280;17145;49.902;8.680;'2022-08-19 07:36:07';99680;;;21;53
30343;BME280;17145;49.902;8.680;'2022-08-19 07:38:35';99670;;;21;54
30343;BME280;17145;49.902;8.680;'2022-08-19 07:41:07';99670;;;21;53
30343;BME280;17145;49.902;8.680;'2022-08-19 07:43:35';99670;;;21;52
30343;BME280;17145;49.902;8.680;'2022-08-19 07:46:03';99680;;;21;52
30343;BME280;17145;49.902;8.680;'2022-08-19 07:48:31';99680;;;21;52
30343;BME280;17145;49.902;8.680;'2022-08-19 07:51:03';99680;;;21;52
30343;BME280;17145;49.902;8.680;'2022-08-19 07:53:31';99690;;;21;51
30343;BME280;17145;49.902;8.680;'2022-08-19 07:56:04';99690;;;21;50
30343;BME280;17145;49.902;8.680;'2022-08-19 07:58:32';99690;;;21;49
30343;BME280;17145;49.902;8.680;'2022-08-19 08:01:00';99700;;;21;50
30343;BME280;17145;49.902;8.680;'2022-08-19 08:03:27';99700;;;21;50
30343;BME280;17145;49.902;8.680;'2022-08-19 08:05:55';99700;;;21;49
30343;BME280;17145;49.902;8.680;'2022-08-19 08:08:22';99710;;;22;49
30343;BME280;17145;49.902;8.680;'2022-08-19 08:10:50';99710;;;22;49
30343;BME280;17145;49.902;8.680;'2022-08-19 08:13:17';99720;;;22;49
30343;BME280;17145;49.902;8.680;'2022-08-19 08:15:45';99720;;;21;49
30343;BME280;17145;49.902;8.680;'2022-08-19 08:18:14';99720;;;21;48
30343;BME280;17145;49.902;8.680;'2022-08-19 08:20:42';99730;;;22;48
30343;BME280;17145;49.902;8.680;'2022-08-19 08:23:10';99730;;;22;48
30343;BME280;17145;49.902;8.680;'2022-08-19 08:25:39';99730;;;22;48
30343;BME280;17145;49.902;8.680;'2022-08-19 08:28:06';99740;;;22;48
30343;BME280;17145;49.902;8.680;'2022-08-19 08:30:35';99740;;;22;48
30343;BME280;17145;49.902;8.680;'2022-08-19 08:33:02';99750;;;22;48
30343;BME280;17145;49.902;8.680;'2022-08-19 08:35:30';99750;;;22;48
30343;BME280;17145;49.902;8.680;'2022-08-19 08:37:58';99750;;;22;47
30343;BME280;17145;49.902;8.680;'2022-08-19 08:40:25';99740;;;22;47
30343;BME280;17145;49.902;8.680;'2022-08-19 08:42:53';99740;;;22;48
30343;BME280;17145;49.902;8.680;'2022-08-19 08:45:20';99740;;;22;47
30343;BME280;17145;49.902;8.680;'2022-08-19 08:47:48';99750;;;22;47
30343;BME280;17145;49.902;8.680;'2022-08-19 08:50:15';99760;;;22;47
30343;BME280;17145;49.902;8.680;'2022-08-19 08:52:43';99750;;;22;47
30343;BME280;17145;49.902;8.680;'2022-08-19 08:55:11';99750;;;22;47
30343;BME280;17145;49.902;8.680;'2022-08-19 08:57:38';99750;;;22;47
30343;BME280;17145;49.902;8.680;'2022-08-19 09:00:07';99750;;;22;47
30343;BME280;17145;49.902;8.680;'2022-08-19 09:02:34';99750;;;22;46
30343;BME280;17145;49.902;8.680;'2022-08-19 09:05:02';99760;;;22;46
30343;BME280;17145;49.902;8.680;'2022-08-19 09:07:30';99760;;;22;46
30343;BME280;17145;49.902;8.680;'2022-08-19 09:09:57';99760;;;23;47
30343;BME280;17145;49.902;8.680;'2022-08-19 09:12:24';99770;;;22;46
30343;BME280;17145;49.902;8.680;'2022-08-19 09:14:52';99770;;;23;46
30343;BME280;17145;49.902;8.680;'2022-08-19 09:17:20';99770;;;22;46
30343;BME280;17145;49.902;8.680;'2022-08-19 09:19:47';99760;;;22;46
30343;BME280;17145;49.902;8.680;'2022-08-19 09:22:15';99760;;;23;47
30343;BME280;17145;49.902;8.680;'2022-08-19 09:24:43';99760;;;23;47
30343;BME280;17145;49.902;8.680;'2022-08-19 09:27:13';99750;;;23;46
30343;BME280;17145;49.902;8.680;'2022-08-19 09:29:40';99750;;;23;46
30343;BME280;17145;49.902;8.680;'2022-08-19 09:32:08';99760;;;23;45
30343;BME280;17145;49.902;8.680;'2022-08-19 09:34:35';99760;;;23;45
30343;BME280;17145;49.902;8.680;'2022-08-19 09:37:04';99760;;;23;45
30343;BME280;17145;49.902;8.680;'2022-08-19 09:39:35';99760;;;23;45
30343;BME280;17145;49.902;8.680;'2022-08-19 09:42:06';99750;;;23;44
30343;BME280;17145;49.902;8.680;'2022-08-19 09:44:35';99750;;;23;44
30343;BME280;17145;49.902;8.680;'2022-08-19 09:47:05';99760;;;23;45
30343;BME280;17145;49.902;8.680;'2022-08-19 09:49:33';99760;;;23;44
30343;BME280;17145;49.902;8.680;'2022-08-19 09:52:04';99760;;;23;45
30343;BME280;17145;49.902;8.680;'2022-08-19 09:54:34';99760;;;23;44
30343;BME280;17145;49.902;8.680;'2022-08-19 09:57:03';99750;;;23;44
30343;BME280;17145;49.902;8.680;'2022-08-19 09:59:32';99750;;;23;44
30343;BME280;17145;49.902;8.680;'2022-08-19 10:02:00';99750;;;24;44
30343;BME280;17145;49.902;8.680;'2022-08-19 10:04:30';99760;;;24;43
30343;BME280;17145;49.902;8.680;'2022-08-19 10:06:58';99750;;;24;43
30343;BME280;17145;49.902;8.680;'2022-08-19 10:09:28';99750;;;24;42
30343;BME280;17145;49.902;8.680;'2022-08-19 10:12:00';99740;;;24;42
30343;BME280;17145;49.902;8.680;'2022-08-19 10:14:31';99750;;;24;42
30343;BME280;17145;49.902;8.680;'2022-08-19 10:16:59';99750;;;24;43
30343;BME280;17145;49.902;8.680;'2022-08-19 10:19:28';99750;;;24;41
30343;BME280;17145;49.902;8.680;'2022-08-19 10:21:58';99750;;;24;41
30343;BME280;17145;49.902;8.680;'2022-08-19 10:24:28';99750;;;24;41
30343;BME280;17145;49.902;8.680;'2022-08-19 10:26:57';99750;;;24;40
30343;BME280;17145;49.902;8.680;'2022-08-19 10:29:25';99750;;;24;41
30343;BME280;17145;49.902;8.680;'2022-08-19 10:31:53';99750;;;24;39
30343;BME280;17145;49.902;8.680;'2022-08-19 10:34:21';99750;;;24;39
30343;BME280;17145;49.902;8.680;'2022-08-19 10:36:49';99750;;;24;40
30343;BME280;17145;49.902;8.680;'2022-08-19 10:39:19';99750;;;24;40
30343;BME280;17145;49.902;8.680;'2022-08-19 10:41:53';99760;;;24;39
30343;BME280;17145;49.902;8.680;'2022-08-19 10:44:27';99760;;;24;39
30343;BME280;17145;49.902;8.680;'2022-08-19 10:46:59';99750;;;24;39
30343;BME280;17145;49.902;8.680;'2022-08-19 10:49:33';99750;;;24;39
30343;BME280;17145;49.902;8.680;'2022-08-19 10:52:05';99740;;;24;40
30343;BME280;17145;49.902;8.680;'2022-08-19 10:54:39';99740;;;24;38
30343;BME280;17145;49.902;8.680;'2022-08-19 10:57:13';99740;;;24;38
30343;BME280;17145;49.902;8.680;'2022-08-19 10:59:46';99740;;;25;38
30343;BME280;17145;49.902;8.680;'2022-08-19 11:02:14';99750;;;24;38
30343;BME280;17145;49.902;8.680;'2022-08-19 11:04:42';99740;;;25;38
30343;BME280;17145;49.902;8.680;'2022-08-19 11:07:23';99740;;;25;38
30343;BME280;17145;49.902;8.680;'2022-08-19 11:09:56';99740;;;25;37
30343;BME280;17145;49.902;8.680;'2022-08-19 11:12:31';99740;;;25;38
30343;BME280;17145;49.902;8.680;'2022-08-19 11:15:04';99740;;;25;37
30343;BME280;17145;49.902;8.680;'2022-08-19 11:17:32';99740;;;25;37
30343;BME280;17145;49.902;8.680;'2022-08-19 11:20:03';99740;;;25;37
30343;BME280;17145;49.902;8.680;'2022-08-19 11:22:30';99740;;;26;37
30343;BME280;17145;49.902;8.680;'2022-08-19 11:24:59';99740;;;26;36
30343;BME280;17145;49.902;8.680;'2022-08-19 11:27:28';99750;;;25;36
30343;BME280;17145;49.902;8.680;'2022-08-19 11:29:55';99740;;;26;36
30343;BME280;17145;49.902;8.680;'2022-08-19 11:32:24';99740;;;25;36
30343;BME280;17145;49.902;8.680;'2022-08-19 11:34:51';99740;;;26;36
30343;BME280;17145;49.902;8.680;'2022-08-19 11:37:20';99740;;;25;36
30343;BME280;17145;49.902;8.680;'2022-08-19 11:39:47';99740;;;25;36
30343;BME280;17145;49.902;8.680;'2022-08-19 11:42:15';99740;;;25;37
30343;BME280;17145;49.902;8.680;'2022-08-19 11:44:44';99740;;;25;37
30343;BME280;17145;49.902;8.680;'2022-08-19 11:47:13';99740;;;25;38
30343;BME280;17145;49.902;8.680;'2022-08-19 11:49:40';99740;;;25;38
30343;BME280;17145;49.902;8.680;'2022-08-19 11:52:09';99740;;;25;38
30343;BME280;17145;49.902;8.680;'2022-08-19 11:54:37';99740;;;25;37
30343;BME280;17145;49.902;8.680;'2022-08-19 11:57:05';99740;;;26;36
30343;BME280;17145;49.902;8.680;'2022-08-19 11:59:34';99740;;;26;36
30343;BME280;17145;49.902;8.680;'2022-08-19 12:02:02';99740;;;26;36
30343;BME280;17145;49.902;8.680;'2022-08-19 12:04:30';99740;;;26;36
30343;BME280;17145;49.902;8.680;'2022-08-19 12:06:57';99740;;;26;35
30343;BME280;17145;49.902;8.680;'2022-08-19 12:09:25';99740;;;26;35
30343;BME280;17145;49.902;8.680;'2022-08-19 12:11:52';99740;;;26;35
30343;BME280;17145;49.902;8.680;'2022-08-19 12:14:20';99740;;;26;35
30343;BME280;17145;49.902;8.680;'2022-08-19 12:16:47';99740;;;26;34
30343;BME280;17145;49.902;8.680;'2022-08-19 12:19:15';99740;;;27;35
30343;BME280;17145;49.902;8.680;'2022-08-19 12:21:43';99740;;;26;35
30343;BME280;17145;49.902;8.680;'2022-08-19 12:24:10';99730;;;26;34
30343;BME280;17145;49.902;8.680;'2022-08-19 12:26:39';99730;;;27;35
30343;BME280;17145;49.902;8.680;'2022-08-19 12:29:07';99730;;;27;34
30343;BME280;17145;49.902;8.680;'2022-08-19 12:31:34';99730;;;27;34
30343;BME280;17145;49.902;8.680;'2022-08-19 12:34:02';99730;;;27;34
30343;BME280;17145;49.902;8.680;'2022-08-19 12:36:33';99730;;;27;34
30343;BME280;17145;49.902;8.680;'2022-08-19 12:39:07';99730;;;26;32
30343;BME280;17145;49.902;8.680;'2022-08-19 12:41:37';99730;;;27;33
30343;BME280;17145;49.902;8.680;'2022-08-19 12:44:08';99730;;;27;34
30343;BME280;17145;49.902;8.680;'2022-08-19 12:46:37';99720;;;27;32
30343;BME280;17145;49.902;8.680;'2022-08-19 12:49:05';99720;;;27;32
30343;BME280;17145;49.902;8.680;'2022-08-19 12:51:33';99710;;;27;32
30343;BME280;17145;49.902;8.680;'2022-08-19 12:54:01';99710;;;28;32
30343;BME280;17145;49.902;8.680;'2022-08-19 12:56:29';99710;;;28;32
30343;BME280;17145;49.902;8.680;'2022-08-19 12:58:58';99700;;;28;31
30343;BME280;17145;49.902;8.680;'2022-08-19 13:01:27';99700;;;28;31
30343;BME280;17145;49.902;8.680;'2022-08-19 13:03:54';99700;;;28;31
30343;BME280;17145;49.902;8.680;'2022-08-19 13:06:21';99690;;;28;31
30343;BME280;17145;49.902;8.680;'2022-08-19 13:08:49';99690;;;28;30
30343;BME280;17145;49.902;8.680;'2022-08-19 13:11:17';99690;;;28;30
30343;BME280;17145;49.902;8.680;'2022-08-19 13:13:46';99680;;;28;30
30343;BME280;17145;49.902;8.680;'2022-08-19 13:16:16';99670;;;28;30
30343;BME280;17145;49.902;8.680;'2022-08-19 13:18:47';99660;;;28;29
30343;BME280;17145;49.902;8.680;'2022-08-19 13:21:17';99660;;;28;29
30343;BME280;17145;49.902;8.680;'2022-08-19 13:23:45';99660;;;29;29
30343;BME280;17145;49.902;8.680;'2022-08-19 13:26:13';99660;;;29;29
30343;BME280;17145;49.902;8.680;'2022-08-19 13:28:41';99640;;;28;28
30343;BME280;17145;49.902;8.680;'2022-08-19 13:31:11';99650;;;28;29
30343;BME280;17145;49.902;8.680;'2022-08-19 13:33:39';99650;;;29;28
30343;BME280;17145;49.902;8.680;'2022-08-19 13:36:07';99660;;;29;29
30343;BME280;17145;49.902;8.680;'2022-08-19 13:38:36';99660;;;29;27
30343;BME280;17145;49.902;8.680;'2022-08-19 13:41:06';99660;;;29;27
30343;BME280;17145;49.902;8.680;'2022-08-19 13:43:35';99660;;;29;28
30343;BME280;17145;49.902;8.680;'2022-08-19 13:46:05';99660;;;30;29
30343;BME280;17145;49.902;8.680;'2022-08-19 13:48:33';99660;;;30;28
30343;BME280;17145;49.902;8.680;'2022-08-19 13:51:05';99660;;;30;27
30343;BME280;17145;49.902;8.680;'2022-08-19 13:53:33';99650;;;29;28
30343;BME280;17145;49.902;8.680;'2022-08-19 13:56:02';99650;;;30;27
30343;BME280;17145;49.902;8.680;'2022-08-19 13:58:30';99650;;;30;27
30343;BME280;17145;49.902;8.680;'2022-08-19 14:00:58';99650;;;30;26
30343;BME280;17145;49.902;8.680;'2022-08-19 14:03:26';99650;;;29;27
30343;BME280;17145;49.902;8.680;'2022-08-19 14:05:54';99650;;;29;27
30343;BME280;17145;49.902;8.680;'2022-08-19 14:08:21';99650;;;29;26
30343;BME280;17145;49.902;8.680;'2022-08-19 14:10:49';99640;;;30;26
30343;BME280;17145;49.902;8.680;'2022-08-19 14:13:16';99640;;;30;26
30343;BME280;17145;49.902;8.680;'2022-08-19 14:15:45';99650;;;30;26
30343;BME280;17145;49.902;8.680;'2022-08-19 14:18:13';99640;;;30;26
30343;BME280;17145;49.902;8.680;'2022-08-19 14:20:42';99630;;;30;25
30343;BME280;17145;49.902;8.680;'2022-08-19 14:23:10';99630;;;30;25
30343;BME280;17145;49.902;8.680;'2022-08-19 14:25:44';99630;;;31;25
30343;BME280;17145;49.902;8.680;'2022-08-19 14:28:12';99630;;;30;24
30343;BME280;17145;49.902;8.680;'2022-08-19 14:30:39';99630;;;30;24
30343;BME280;17145;49.902;8.680;'2022-08-19 14:33:07';99630;;;30;25
30343;BME280;17145;49.902;8.680;'2022-08-19 14:35:35';99630;;;30;24
30343;BME280;17145;49.902;8.680;'2022-08-19 14:38:02';99620;;;31;24
30343;BME280;17145;49.902;8.680;'2022-08-19 14:40:30';99620;;;31;24
30343;BME280;17145;49.902;8.680;'2022-08-19 14:42:57';99620;;;30;24
30343;BME280;17145;49.902;8.680;'2022-08-19 14:45:24';99620;;;31;25
30343;BME280;17145;49.902;8.680;'2022-08-19 14:47:52';99620;;;31;23
30343;BME280;17145;49.902;8.680;'2022-08-19 14:50:20';99620;;;31;23
30343;BME280;17145;49.902;8.680;'2022-08-19 14:52:48';99620;;;31;23
30343;BME280;17145;49.902;8.680;'2022-08-19 14:55:16';99620;;;31;23
30343;BME280;17145;49.902;8.680;'2022-08-19 14:57:43';99620;;;31;23
30343;BME280;17145;49.902;8.680;'2022-08-19 15:00:14';99620;;;31;23
30343;BME280;17145;49.902;8.680;'2022-08-19 15:02:44';99630;;;32;23
30343;BME280;17145;49.902;8.680;'2022-08-19 15:05:14';99620;;;32;21
30343;BME280;17145;49.902;8.680;'2022-08-19 15:07:42';99620;;;32;21
30343;BME280;17145;49.902;8.680;'2022-08-19 15:10:12';99630;;;32;21
30343;BME280;17145;49.902;8.680;'2022-08-19 15:12:40';99630;;;32;20
30343;BME280;17145;49.902;8.680;'2022-08-19 15:15:08';99630;;;32;20
30343;BME280;17145;49.902;8.680;'2022-08-19 15:17:36';99630;;;33;20
30343;BME280;17145;49.902;8.680;'2022-08-19 15:20:05';99630;;;33;19
30343;BME280;17145;49.902;8.680;'2022-08-19 15:22:33';99640;;;33;19
30343;BME280;17145;49.902;8.680;'2022-08-19 15:25:01';99640;;;33;20
30343;BME280;17145;49.902;8.680;'2022-08-19 15:27:29';99640;;;33;19
30343;BME280;17145;49.902;8.680;'2022-08-19 15:29:57';99650;;;33;19
30343;BME280;17145;49.902;8.680;'2022-08-19 15:32:24';99650;;;33;18
30343;BME280;17145;49.902;8.680;'2022-08-19 15:34:52';99650;;;33;19
30343;BME280;17145;49.902;8.680;'2022-08-19 15:37:19';99650;;;34;18
30343;BME280;17145;49.902;8.680;'2022-08-19 15:39:47';99650;;;34;19
30343;BME280;17145;49.902;8.680;'2022-08-19 15:42:14';99640;;;34;18
30343;BME280;17145;49.902;8.680;'2022-08-19 15:44:42';99650;;;34;18
30343;BME280;17145;49.902;8.680;'2022-08-19 15:47:09';99640;;;34;18
30343;BME280;17145;49.902;8.680;'2022-08-19 15:49:37';99640;;;34;18
30343;BME280;17145;49.902;8.680;'2022-08-19 15:52:05';99640;;;34;18
30343;BME280;17145;49.902;8.680;'2022-08-19 15:54:33';99650;;;33;19
30343;BME280;17145;49.902;8.680;'2022-08-19 15:57:01';99650;;;33;19
30343;BME280;17145;49.902;8.680;'2022-08-19 15:59:28';99650;;;32;19
30343;BME280;17145;49.902;8.680;'2022-08-19 16:01:58';99660;;;32;19
30343;BME280;17145;49.902;8.680;'2022-08-19 16:04:25';99660;;;32;19
30343;BME280;17145;49.902;8.680;'2022-08-19 16:06:53';99660;;;32;19
30343;BME280;17145;49.902;8.680;'2022-08-19 16:09:20';99660;;;32;19
30343;BME280;17145;49.902;8.680;'2022-08-19 16:11:48';99660;;;33;19
30343;BME280;17145;49.902;8.680;'2022-08-19 16:14:15';99660;;;33;18
30343;BME280;17145;49.902;8.680;'2022-08-19 16:16:43';99650;;;34;19
30343;BME280;17145;49.902;8.680;'2022-08-19 16:19:10';99640;;;34;18
30343;BME280;17145;49.902;8.680;'2022-08-19 16:21:38';99640;;;34;18
30343;BME280;17145;49.902;8.680;'2022-08-19 16:24:06';99620;;;34;17
30343;BME280;17145;49.902;8.680;'2022-08-19 16:26:33';99620;;;34;18